Time;durP1;ratioP1;P1;durP2;ratioP2;P2;SDS_P1;SDS_P2;PMS_P1;PMS_P2;Temp;Humidity;BMP_temperature;BMP_pressure;BME280_temperature;BME280_humidity;BME280_pressure;Samples;Min_cycle;Max_cycle;Signal;HPM_P1;HPM_P2
2023/12/10 00:01:49;;;;;;;23.47;4.20;;;;;;;7.49;93.19;94416.16;4976876;28;20284;-80
2023/12/10 00:04:15;;;;;;;19.90;4.13;;;;;;;7.67;92.55;94452.25;4992479;28;20208;-81
2023/12/10 00:06:40;;;;;;;20.00;4.37;;;;;;;7.72;92.48;94470.69;4979146;28;20196;-81
2023/12/10 00:09:05;;;;;;;27.00;4.13;;;;;;;7.63;92.72;94453.53;4957746;28;20659;-80
2023/12/10 00:11:31;;;;;;;28.53;4.87;;;;;;;7.68;92.39;94456.44;4973860;28;20184;-81
2023/12/10 00:13:57;;;;;;;27.13;3.90;;;;;;;7.74;91.87;94463.56;4970263;28;20210;-80
2023/12/10 00:16:22;;;;;;;27.33;4.50;;;;;;;7.71;92.45;94460.50;4974739;28;20192;-81
2023/12/10 00:18:47;;;;;;;25.57;4.57;;;;;;;7.59;92.24;94476.25;4973437;28;20239;-80
2023/12/10 00:21:14;;;;;;;19.83;4.17;;;;;;;7.66;91.26;94473.88;4991741;28;20192;-81
2023/12/10 00:23:39;;;;;;;31.13;6.30;;;;;;;7.66;90.88;94473.88;4974598;28;20179;-80
2023/12/10 00:26:05;;;;;;;25.63;5.57;;;;;;;7.55;91.11;94454.31;4958724;28;20190;-81
2023/12/10 00:28:30;;;;;;;25.63;5.57;;;;;;;7.41;91.24;94472.16;4971731;28;20191;-80
2023/12/10 00:30:55;;;;;;;25.47;4.53;;;;;;;7.50;90.51;94474.63;4990086;28;20290;-81
2023/12/10 00:33:21;;;;;;;26.43;5.20;;;;;;;7.59;90.14;94489.19;4989798;28;20185;-81
2023/12/10 00:35:46;;;;;;;25.13;5.47;;;;;;;7.58;89.72;94495.31;4990014;28;20203;-81
2023/12/10 00:38:12;;;;;;;19.93;4.70;;;;;;;7.33;90.21;94501.31;4958268;28;20215;-80
2023/12/10 00:40:37;;;;;;;32.13;5.27;;;;;;;7.46;90.23;94495.75;4990279;28;20192;-80
2023/12/10 00:43:03;;;;;;;22.33;5.37;;;;;;;7.55;89.63;94510.34;4972201;28;20576;-81
2023/12/10 00:45:28;;;;;;;29.83;5.53;;;;;;;7.53;89.65;94504.53;4990447;28;20207;-81
2023/12/10 00:47:54;;;;;;;22.87;4.50;;;;;;;7.41;89.30;94495.41;4957888;28;20183;-81
2023/12/10 00:50:19;;;;;;;22.40;4.60;;;;;;;7.39;88.88;94516.22;4990238;28;20188;-81
2023/12/10 00:52:45;;;;;;;25.40;4.17;;;;;;;7.58;88.19;94513.41;4974021;28;20179;-82
2023/12/10 00:55:11;;;;;;;27.37;5.83;;;;;;;7.38;88.38;94505.06;4988236;28;20203;-81
2023/12/10 00:57:37;;;;;;;31.07;5.30;;;;;;;7.60;87.74;94518.44;4957805;28;20792;-81
2023/12/10 01:00:04;;;;;;;34.23;5.80;;;;;;;7.38;88.33;94537.84;4989266;28;20198;-81
2023/12/10 01:02:30;;;;;;;31.30;5.67;;;;;;;7.48;87.82;94540.31;4978066;28;20560;-81
2023/12/10 01:04:55;;;;;;;23.57;4.90;;;;;;;7.22;88.69;94537.75;4958125;28;20286;-81
2023/12/10 01:07:21;;;;;;;29.03;5.93;;;;;;;7.39;88.43;94534.28;4972414;28;20564;-80
2023/12/10 01:09:46;;;;;;;25.93;5.50;;;;;;;7.29;87.75;94544.72;4990303;28;20864;-81
2023/12/10 01:12:11;;;;;;;28.27;5.63;;;;;;;7.36;87.16;94537.19;4974098;28;20212;-81
2023/12/10 01:14:37;;;;;;;18.63;4.20;;;;;;;7.37;87.21;94541.41;4989960;28;20250;-81
2023/12/10 01:17:02;;;;;;;26.23;5.60;;;;;;;7.33;87.25;94563.31;4975486;28;20756;-81
2023/12/10 01:19:28;;;;;;;31.47;6.73;;;;;;;7.45;86.52;94587.94;4959180;28;20184;-81
2023/12/10 01:21:53;;;;;;;24.33;4.97;;;;;;;7.30;86.13;94572.19;4978120;28;20234;-81
2023/12/10 01:24:20;;;;;;;28.03;4.63;;;;;;;7.41;86.21;94580.63;4989834;28;20216;-81
2023/12/10 01:26:48;;;;;;;26.57;4.87;;;;;;;7.44;85.87;94576.00;4973684;28;20176;-80
2023/12/10 01:29:15;;;;;;;29.57;5.33;;;;;;;7.37;86.08;94585.31;4973712;28;20234;-81
2023/12/10 01:31:40;;;;;;;29.37;5.57;;;;;;;7.37;85.52;94593.88;4974413;28;20180;-80
2023/12/10 01:34:06;;;;;;;27.00;4.80;;;;;;;7.40;85.62;94585.00;4989007;28;20218;-80
2023/12/10 01:36:31;;;;;;;24.23;4.60;;;;;;;7.33;84.89;94583.97;4957402;28;20207;-81
2023/12/10 01:38:56;;;;;;;29.30;5.17;;;;;;;7.37;84.49;94586.13;4972033;28;20231;-81
2023/12/10 01:41:23;;;;;;;26.00;4.70;;;;;;;7.43;84.70;94599.41;4967954;28;20195;-81
2023/12/10 01:43:49;;;;;;;30.00;5.13;;;;;;;7.43;84.21;94595.03;4988383;28;20206;-81
2023/12/10 01:46:14;;;;;;;26.70;4.70;;;;;;;7.41;83.99;94607.28;4957756;28;20577;-80
2023/12/10 01:48:41;;;;;;;25.97;5.07;;;;;;;7.46;83.78;94620.56;4973292;28;20175;-81
2023/12/10 01:51:08;;;;;;;26.47;5.20;;;;;;;7.46;83.83;94620.56;4968870;28;20195;-81
2023/12/10 01:53:33;;;;;;;23.47;4.63;;;;;;;7.37;84.91;94626.63;4961396;28;20219;-80
2023/12/10 01:55:59;;;;;;;24.97;4.40;;;;;;;7.53;85.42;94642.25;4994005;28;20219;-80
2023/12/10 01:58:24;;;;;;;23.60;4.70;;;;;;;7.56;85.82;94652.28;4993169;28;20203;-81
2023/12/10 02:00:49;;;;;;;20.17;5.10;;;;;;;7.57;87.00;94668.59;4977355;28;20184;-81
2023/12/10 02:03:15;;;;;;;24.27;4.27;;;;;;;7.37;88.14;94683.44;4973000;28;20243;-81
2023/12/10 02:05:41;;;;;;;19.23;3.80;;;;;;;7.37;87.57;94678.28;4994300;28;20206;-80
2023/12/10 02:08:06;;;;;;;15.27;3.23;;;;;;;7.08;88.06;94683.69;4958609;28;20188;-80
2023/12/10 02:10:32;;;;;;;20.60;3.70;;;;;;;7.12;89.43;94684.19;4960741;28;20172;-80
2023/12/10 02:12:57;;;;;;;19.27;4.17;;;;;;;6.95;90.53;94715.00;4991185;28;20184;-80
2023/12/10 02:15:23;;;;;;;19.60;3.70;;;;;;;7.12;89.38;94718.56;4974445;28;20262;-81
2023/12/10 02:17:49;;;;;;;17.07;3.10;;;;;;;7.13;90.31;94698.72;4953406;28;20196;-81
2023/12/10 02:20:15;;;;;;;10.23;2.40;;;;;;;6.85;90.59;94703.94;4992145;28;20240;-81
2023/12/10 02:23:05;;;;;;;14.57;2.87;;;;;;;6.91;91.34;94730.94;4993291;28;20246;-81
2023/12/10 02:25:34;;;;;;;12.90;2.20;;;;;;;6.88;91.91;94711.38;4976318;28;20209;-81
2023/12/10 02:28:01;;;;;;;12.57;3.37;;;;;;;6.85;91.07;94716.03;4973587;28;20195;-81
2023/12/10 02:30:26;;;;;;;10.20;2.40;;;;;;;6.69;91.06;94703.75;4959575;28;20180;-81
2023/12/10 02:32:51;;;;;;;12.20;2.70;;;;;;;6.73;90.91;94725.75;4973460;28;20275;-80
2023/12/10 02:35:17;;;;;;;8.83;3.00;;;;;;;6.61;91.04;94727.69;4976548;28;20195;-81
2023/12/10 02:37:42;;;;;;;14.33;2.70;;;;;;;6.52;91.56;94725.97;4992311;28;20235;-80
2023/12/10 02:40:08;;;;;;;13.70;2.47;;;;;;;6.58;91.10;94742.66;4974183;28;20191;-80
2023/12/10 02:42:33;;;;;;;15.00;2.37;;;;;;;6.56;91.47;94734.25;4991747;28;20607;-81
2023/12/10 02:44:59;;;;;;;13.40;2.90;;;;;;;6.51;90.68;94735.47;4975696;28;20619;-80
2023/12/10 02:47:24;;;;;;;19.40;3.27;;;;;;;6.61;89.93;94745.75;4979620;28;20223;-80
2023/12/10 02:49:50;;;;;;;20.57;2.97;;;;;;;6.67;89.66;94746.94;4976971;28;20187;-81
2023/12/10 02:52:15;;;;;;;17.90;3.30;;;;;;;6.58;89.95;94752.97;4968613;28;20223;-80
2023/12/10 02:54:41;;;;;;;19.17;3.30;;;;;;;6.53;90.03;94761.13;4992461;28;20211;-80
2023/12/10 02:57:06;;;;;;;18.07;4.37;;;;;;;6.52;89.27;94744.84;4975495;28;20872;-81
2023/12/10 02:59:31;;;;;;;17.87;3.43;;;;;;;6.59;88.95;94759.75;4978315;28;20242;-81
2023/12/10 03:01:57;;;;;;;19.50;3.70;;;;;;;6.58;88.97;94761.53;4994543;28;20266;-81
2023/12/10 03:04:22;;;;;;;19.03;3.73;;;;;;;6.56;88.75;94755.69;4961113;28;20587;-81
2023/12/10 03:06:47;;;;;;;17.00;3.10;;;;;;;6.56;88.58;94762.63;4975709;28;20184;-81
2023/12/10 03:09:13;;;;;;;14.60;3.30;;;;;;;6.51;88.11;94768.19;4976142;28;20183;-81
2023/12/10 03:11:38;;;;;;;16.63;3.20;;;;;;;6.65;86.66;94774.66;4961864;28;20191;-81
2023/12/10 03:14:04;;;;;;;19.93;3.33;;;;;;;6.55;86.64;94789.38;4975616;28;20681;-81
2023/12/10 03:16:30;;;;;;;16.30;3.80;;;;;;;6.69;85.89;94796.63;4975710;28;20207;-80
2023/12/10 03:18:55;;;;;;;34.00;4.10;;;;;;;6.74;86.42;94808.16;4958608;28;20208;-81
2023/12/10 03:21:20;;;;;;;19.57;4.57;;;;;;;6.72;86.49;94806.69;4990054;28;20206;-80
2023/12/10 03:23:46;;;;;;;17.10;3.20;;;;;;;6.78;85.66;94821.59;4992132;28;20561;-81
2023/12/10 03:26:11;;;;;;;17.40;3.10;;;;;;;6.76;85.64;94820.94;4975526;28;20192;-80
2023/12/10 03:28:36;;;;;;;12.63;3.50;;;;;;;6.87;85.22;94830.25;4991352;28;20195;-81
2023/12/10 03:31:02;;;;;;;17.50;3.30;;;;;;;6.78;85.26;94821.59;4989542;28;20190;-81
2023/12/10 03:33:27;;;;;;;15.77;3.87;;;;;;;6.82;84.83;94817.78;4992770;28;20184;-80
2023/12/10 03:35:52;;;;;;;18.70;4.37;;;;;;;6.63;85.14;94833.34;4974135;28;20203;-81
2023/12/10 03:38:18;;;;;;;15.47;3.47;;;;;;;6.78;86.25;94830.13;4987898;28;20216;-81
2023/12/10 03:40:43;;;;;;;23.40;3.67;;;;;;;6.61;87.29;94846.34;4990040;28;20670;-81
2023/12/10 03:43:08;;;;;;;13.80;3.20;;;;;;;6.67;87.46;94847.56;4959177;28;21646;-80
2023/12/10 03:45:34;;;;;;;17.90;2.87;;;;;;;6.72;87.12;94845.41;4980887;28;20204;-81
2023/12/10 03:47:59;;;;;;;19.40;3.77;;;;;;;6.72;85.89;94842.81;4975031;28;20931;-81
2023/12/10 03:50:25;;;;;;;16.30;2.93;;;;;;;6.84;85.78;94852.00;4972296;28;20192;-81
2023/12/10 03:52:50;;;;;;;18.27;3.60;;;;;;;6.46;86.96;94853.75;4974877;28;20221;-80
2023/12/10 03:55:17;;;;;;;18.23;3.43;;;;;;;6.40;86.32;94846.56;4975093;28;20361;-80
2023/12/10 03:57:42;;;;;;;14.97;3.73;;;;;;;6.65;85.37;94852.06;4990541;28;20725;-81
2023/12/10 04:00:08;;;;;;;16.80;3.63;;;;;;;6.62;85.81;94858.31;4974866;28;20284;-80
2023/12/10 04:02:33;;;;;;;17.20;3.60;;;;;;;6.59;85.33;94857.78;4992005;28;20188;-80
2023/12/10 04:04:58;;;;;;;17.77;3.50;;;;;;;6.52;85.73;94863.50;4975605;28;20314;-81
2023/12/10 04:07:25;;;;;;;15.00;3.40;;;;;;;6.63;84.34;94854.78;4974823;28;20650;-81
2023/12/10 04:09:50;;;;;;;19.20;3.30;;;;;;;6.79;84.16;94864.50;4977384;28;20225;-81
2023/12/10 04:12:15;;;;;;;15.23;3.23;;;;;;;6.62;82.93;94853.13;4974037;28;20234;-80
2023/12/10 04:14:41;;;;;;;23.97;3.90;;;;;;;6.64;83.08;94863.34;4974631;28;20216;-80
2023/12/10 04:17:06;;;;;;;19.40;2.97;;;;;;;6.78;82.86;94871.44;4974374;28;20196;-80
2023/12/10 04:19:32;;;;;;;12.07;2.77;;;;;;;6.71;82.47;94859.22;4991152;28;20211;-81
2023/12/10 04:21:57;;;;;;;19.33;3.97;;;;;;;6.80;81.57;94873.88;4990942;28;20273;-81
2023/12/10 04:24:22;;;;;;;16.73;3.70;;;;;;;6.73;81.62;94875.41;4974608;28;20631;-80
2023/12/10 04:26:48;;;;;;;18.10;3.93;;;;;;;6.63;81.77;94880.59;4972292;28;20248;-80
2023/12/10 04:29:13;;;;;;;20.83;4.03;;;;;;;6.68;81.94;94880.97;4988725;28;20323;-81
2023/12/10 04:31:38;;;;;;;14.17;3.47;;;;;;;6.77;80.67;94887.06;4989816;28;20215;-80
2023/12/10 04:34:04;;;;;;;18.53;3.37;;;;;;;6.68;79.33;94877.56;4991538;28;20212;-79
2023/12/10 04:36:29;;;;;;;16.97;3.20;;;;;;;6.78;79.58;94868.84;4993472;28;20194;-80
2023/12/10 04:38:55;;;;;;;16.37;3.60;;;;;;;6.78;79.78;94874.00;4989213;28;20215;-80
2023/12/10 04:41:21;;;;;;;18.87;2.73;;;;;;;6.78;79.53;94868.84;4969775;28;20187;-81
2023/12/10 04:43:48;;;;;;;19.90;4.30;;;;;;;6.62;78.68;94872.97;4991317;28;20239;-80
2023/12/10 04:46:13;;;;;;;13.63;3.03;;;;;;;6.75;78.64;94884.63;4958356;28;20278;-80
2023/12/10 04:48:39;;;;;;;15.40;3.20;;;;;;;6.46;78.79;94879.53;4992376;28;20760;-80
2023/12/10 04:51:04;;;;;;;18.73;3.30;;;;;;;6.65;78.82;94870.94;4989808;28;20196;-81
2023/12/10 04:53:30;;;;;;;10.17;2.70;;;;;;;6.54;78.08;94871.13;4955575;28;20271;-81
2023/12/10 04:55:55;;;;;;;15.27;3.40;;;;;;;6.51;77.91;94887.66;4990475;28;20211;-81
2023/12/10 04:58:20;;;;;;;16.73;2.97;;;;;;;6.67;78.19;94884.50;4989563;28;20319;-80
2023/12/10 05:00:46;;;;;;;13.83;3.00;;;;;;;6.52;77.98;94876.38;4973420;28;20223;-80
2023/12/10 05:03:11;;;;;;;13.33;2.80;;;;;;;6.63;77.76;94869.47;4990654;28;20183;-81
2023/12/10 05:05:36;;;;;;;13.27;3.07;;;;;;;6.61;77.41;94881.66;4984160;28;20407;-81
2023/12/10 05:08:02;;;;;;;11.43;2.90;;;;;;;6.69;77.48;94889.53;4989903;28;20558;-81
2023/12/10 05:10:28;;;;;;;18.13;2.93;;;;;;;6.50;77.46;94895.53;4981406;28;20539;-80
2023/12/10 05:12:53;;;;;;;17.63;3.27;;;;;;;6.51;76.92;94892.00;4990055;28;20235;-81
2023/12/10 05:15:18;;;;;;;17.43;2.73;;;;;;;6.52;76.90;94884.13;4973923;28;20303;-81
2023/12/10 05:17:44;;;;;;;13.17;2.83;;;;;;;6.40;76.40;94911.03;4973304;28;20689;-81
2023/12/10 05:20:09;;;;;;;12.27;3.43;;;;;;;6.53;76.84;94908.97;4990039;28;20195;-80
2023/12/10 05:22:35;;;;;;;15.37;2.77;;;;;;;6.68;76.16;94924.84;4972863;28;20192;-81
2023/12/10 05:25:00;;;;;;;15.90;3.27;;;;;;;6.53;77.02;94921.88;4987696;28;20218;-80
2023/12/10 05:27:26;;;;;;;17.60;2.70;;;;;;;6.52;77.61;94915.06;4966771;28;20315;-81
2023/12/10 05:29:51;;;;;;;15.13;3.47;;;;;;;6.43;77.78;94915.91;4989948;28;20649;-81
2023/12/10 05:32:16;;;;;;;19.63;2.77;;;;;;;6.41;77.91;94924.75;4980752;28;20211;-81
2023/12/10 05:34:42;;;;;;;15.93;3.07;;;;;;;6.40;77.50;94936.81;4987536;28;20241;-81
2023/12/10 05:37:07;;;;;;;14.10;2.87;;;;;;;6.46;76.87;94922.56;4992107;28;20679;-81
2023/12/10 05:39:33;;;;;;;10.63;2.63;;;;;;;6.48;76.86;94923.25;4972619;28;20192;-80
2023/12/10 05:41:58;;;;;;;18.63;3.13;;;;;;;6.23;77.05;94924.63;4988394;28;20280;-81
2023/12/10 05:44:23;;;;;;;14.83;3.40;;;;;;;6.46;76.57;94935.47;4957467;28;20214;-81
2023/12/10 05:46:49;;;;;;;13.13;2.43;;;;;;;6.31;76.28;94919.59;4973006;28;20187;-81
2023/12/10 05:49:14;;;;;;;10.73;2.57;;;;;;;6.33;76.04;94924.59;4960527;28;20192;-80
2023/12/10 05:51:40;;;;;;;13.27;3.10;;;;;;;6.36;75.99;94934.63;4989775;28;20639;-81
2023/12/10 05:54:05;;;;;;;16.00;3.40;;;;;;;6.36;75.86;94945.78;4973589;28;20211;-81
2023/12/10 05:56:30;;;;;;;14.20;2.87;;;;;;;6.36;75.57;94942.38;4956745;28;20183;-81
2023/12/10 05:58:56;;;;;;;15.67;3.53;;;;;;;6.33;75.40;94929.78;4988076;28;20685;-80
2023/12/10 06:01:21;;;;;;;14.10;2.87;;;;;;;6.39;75.05;94945.50;4971623;28;20241;-81
2023/12/10 06:03:49;;;;;;;17.10;3.27;;;;;;;6.43;75.22;94954.59;4976251;28;20286;-81
2023/12/10 06:06:15;;;;;;;14.53;2.77;;;;;;;6.43;75.15;94928.00;4977251;28;20188;-81
2023/12/10 06:08:40;;;;;;;14.23;2.50;;;;;;;6.56;75.02;94949.16;4989336;28;20725;-81
2023/12/10 06:11:05;;;;;;;17.80;3.00;;;;;;;6.35;76.09;94957.03;4988242;28;20196;-81
2023/12/10 06:13:31;;;;;;;13.47;2.70;;;;;;;6.36;76.33;94978.47;4969706;28;20188;-80
2023/12/10 06:15:57;;;;;;;15.70;2.83;;;;;;;6.45;75.61;94944.16;4957429;28;20191;-80
2023/12/10 06:18:23;;;;;;;16.87;2.83;;;;;;;6.23;75.68;94969.25;4989482;28;20243;-80
2023/12/10 06:20:49;;;;;;;15.30;3.07;;;;;;;6.43;75.90;94957.16;4989797;28;20225;-81
2023/12/10 06:23:14;;;;;;;10.73;2.70;;;;;;;6.45;75.78;94968.19;4963755;28;20654;-81
2023/12/10 06:25:40;;;;;;;12.70;2.70;;;;;;;6.37;75.75;94969.81;4973363;28;20214;-81
2023/12/10 06:28:05;;;;;;;16.53;3.07;;;;;;;6.29;75.73;94993.69;4972054;28;20247;-81
2023/12/10 06:30:31;;;;;;;17.33;3.83;;;;;;;6.38;77.01;94994.66;4972189;28;20606;-81
2023/12/10 06:32:56;;;;;;;15.57;3.40;;;;;;;6.31;76.66;95002.13;4970430;28;20204;-81
2023/12/10 06:35:22;;;;;;;14.27;3.40;;;;;;;6.29;76.86;94985.16;4989284;28;20204;-81
2023/12/10 06:37:47;;;;;;;20.03;2.73;;;;;;;6.35;77.08;95000.88;4993058;28;20205;-80
2023/12/10 06:40:12;;;;;;;9.90;3.00;;;;;;;6.53;76.81;95007.00;4991731;28;20188;-81
2023/12/10 06:42:38;;;;;;;14.43;3.43;;;;;;;6.43;76.82;95029.38;4992680;28;20744;-80
2023/12/10 06:45:05;;;;;;;14.37;2.90;;;;;;;6.50;76.68;95025.31;4975280;28;20639;-80
2023/12/10 06:47:30;;;;;;;15.97;3.27;;;;;;;6.58;76.79;95037.56;4992449;28;20275;-80
2023/12/10 06:49:55;;;;;;;15.97;2.67;;;;;;;6.54;76.99;95046.53;4960791;28;20333;-81
2023/12/10 06:52:21;;;;;;;15.87;3.40;;;;;;;6.53;77.40;95056.00;4975361;28;20728;-81
2023/12/10 06:54:46;;;;;;;18.90;3.50;;;;;;;6.46;77.33;95054.94;4976210;28;20322;-81
2023/12/10 06:57:12;;;;;;;15.70;3.50;;;;;;;6.52;76.89;95053.56;4972058;28;20263;-81
2023/12/10 06:59:37;;;;;;;12.43;2.80;;;;;;;6.23;76.84;95035.47;4992078;28;20238;-80
2023/12/10 07:02:03;;;;;;;15.10;3.13;;;;;;;6.38;76.41;95059.13;4998818;28;20196;-80
2023/12/10 07:04:28;;;;;;;13.97;3.33;;;;;;;6.39;76.25;95048.69;4975522;28;20211;-81
2023/12/10 07:06:54;;;;;;;13.70;2.70;;;;;;;6.35;76.32;95047.28;4991125;28;20562;-80
2023/12/10 07:09:19;;;;;;;11.10;2.73;;;;;;;6.49;75.97;95069.31;4969835;28;20193;-80
2023/12/10 07:11:44;;;;;;;12.50;3.50;;;;;;;6.53;75.79;95076.63;4976105;28;20317;-80
2023/12/10 07:14:10;;;;;;;16.70;3.27;;;;;;;6.50;76.70;95074.34;4976346;28;20211;-80
2023/12/10 07:16:35;;;;;;;13.30;3.30;;;;;;;6.53;76.76;95076.63;4971552;28;20204;-81
2023/12/10 07:19:01;;;;;;;16.03;2.50;;;;;;;6.42;76.88;95073.38;4975565;28;20775;-81
2023/12/10 07:21:26;;;;;;;15.63;3.00;;;;;;;6.39;76.69;95071.06;4994918;28;20219;-81
2023/12/10 07:23:51;;;;;;;16.53;2.90;;;;;;;6.56;76.33;95096.22;4992263;28;20290;-80
2023/12/10 07:26:24;;;;;;;14.77;3.10;;;;;;;6.63;75.81;95096.50;4991966;28;20196;-81
2023/12/10 07:28:50;;;;;;;18.53;3.73;;;;;;;6.46;76.10;95101.38;4974469;28;20192;-81
2023/12/10 07:31:16;;;;;;;16.13;3.30;;;;;;;6.67;75.09;95103.81;4992468;28;20575;-81
2023/12/10 07:33:41;;;;;;;13.83;2.97;;;;;;;6.56;75.29;95090.25;4970029;28;20194;-81
2023/12/10 07:36:07;;;;;;;14.37;3.20;;;;;;;6.62;75.46;95121.47;4975639;28;20275;-81
2023/12/10 07:38:33;;;;;;;12.63;2.73;;;;;;;6.74;75.06;95104.09;4959069;28;20216;-80
2023/12/10 07:40:58;;;;;;;21.10;3.43;;;;;;;6.78;75.02;95123.53;4974069;28;20202;-81
2023/12/10 07:43:24;;;;;;;16.77;2.27;;;;;;;6.61;74.92;95145.63;4974989;28;20195;-80
2023/12/10 07:45:49;;;;;;;10.43;2.20;;;;;;;6.56;73.82;95129.75;4981917;28;20291;-81
2023/12/10 07:48:15;;;;;;;15.17;3.13;;;;;;;6.82;73.87;95151.53;4996183;28;20202;-82
2023/12/10 07:50:41;;;;;;;10.97;2.60;;;;;;;6.80;74.54;95142.25;4992374;28;20183;-81
2023/12/10 07:53:06;;;;;;;22.60;4.20;;;;;;;6.90;73.87;95139.72;4973089;28;20338;-82
2023/12/10 07:55:31;;;;;;;13.30;2.70;;;;;;;6.81;73.80;95131.00;4987828;28;20218;-81
2023/12/10 07:57:57;;;;;;;11.73;2.70;;;;;;;6.75;73.76;95154.75;4993670;28;20235;-82
2023/12/10 08:00:22;;;;;;;12.40;3.43;;;;;;;6.85;73.28;95137.53;4977543;28;20200;-83
2023/12/10 08:02:47;;;;;;;14.27;3.10;;;;;;;6.88;73.53;95157.88;4980596;28;20218;-83
2023/12/10 08:05:13;;;;;;;12.10;2.90;;;;;;;7.01;73.36;95161.03;4976844;28;20208;-82
2023/12/10 08:07:38;;;;;;;17.47;2.90;;;;;;;7.00;73.24;95177.50;4993114;28;20568;-82
2023/12/10 08:10:05;;;;;;;15.00;3.13;;;;;;;7.00;73.00;95159.41;4992676;28;20838;-82
2023/12/10 08:12:31;;;;;;;17.27;2.97;;;;;;;7.26;72.53;95161.47;4992289;28;20196;-81
2023/12/10 08:14:56;;;;;;;17.73;3.60;;;;;;;6.97;72.83;95166.59;4961741;28;20215;-82
2023/12/10 08:17:22;;;;;;;11.83;2.93;;;;;;;7.06;72.96;95170.94;4971610;28;20310;-82
2023/12/10 08:19:47;;;;;;;10.80;2.33;;;;;;;6.90;71.51;95163.75;4977032;28;20188;-82
2023/12/10 08:22:13;;;;;;;14.93;2.80;;;;;;;7.13;71.35;95177.22;4994895;28;20188;-79
2023/12/10 08:24:39;;;;;;;9.93;3.03;;;;;;;7.02;71.75;95175.56;4961700;28;20239;-80
2023/12/10 08:27:05;;;;;;;17.40;3.17;;;;;;;7.32;71.42;95182.38;4977622;28;20713;-85
2023/12/10 08:29:30;;;;;;;16.47;3.03;;;;;;;7.25;71.80;95175.31;4963189;28;20590;-80
2023/12/10 08:31:56;;;;;;;18.20;4.83;;;;;;;7.38;71.23;95189.59;4994219;28;20192;-81
2023/12/10 08:34:21;;;;;;;16.10;3.33;;;;;;;7.54;71.25;95196.78;4993240;28;20212;-81
2023/12/10 08:36:46;;;;;;;11.63;3.40;;;;;;;7.66;70.92;95194.84;4979211;28;20190;-80
2023/12/10 08:39:13;;;;;;;14.80;3.10;;;;;;;7.69;71.89;95189.44;4963997;28;20216;-80
2023/12/10 08:41:38;;;;;;;16.30;3.30;;;;;;;7.63;72.45;95198.53;4993238;28;20267;-81
2023/12/10 08:44:04;;;;;;;14.57;3.70;;;;;;;7.57;72.07;95203.44;4991910;28;20306;-81
2023/12/10 08:46:29;;;;;;;14.00;3.03;;;;;;;7.59;73.27;95206.69;4992046;28;20191;-80
2023/12/10 08:48:55;;;;;;;16.97;3.60;;;;;;;7.69;74.51;95210.09;4992622;28;20190;-80
2023/12/10 08:51:20;;;;;;;14.63;3.33;;;;;;;7.56;75.63;95212.97;4976728;28;20184;-81
2023/12/10 08:53:46;;;;;;;10.20;3.43;;;;;;;7.45;77.09;95220.03;4975871;28;20215;-80
2023/12/10 08:56:11;;;;;;;12.70;3.03;;;;;;;7.25;77.68;95225.22;4975387;28;20215;-80
2023/12/10 08:58:37;;;;;;;14.03;3.23;;;;;;;7.35;78.80;95232.97;4958834;28;20671;-82
2023/12/10 09:01:03;;;;;;;13.93;3.30;;;;;;;7.47;78.89;95243.97;4989320;28;20243;-80
2023/12/10 09:03:28;;;;;;;12.57;3.10;;;;;;;7.27;80.83;95250.91;4967828;28;20203;-80
2023/12/10 09:05:54;;;;;;;16.67;3.87;;;;;;;7.34;81.18;95246.84;4974546;28;20207;-82
2023/12/10 09:08:19;;;;;;;13.93;3.00;;;;;;;7.12;82.83;95247.06;4989842;28;20180;-82
2023/12/10 09:10:44;;;;;;;11.50;2.80;;;;;;;7.25;82.41;95269.13;4990494;28;20202;-81
2023/12/10 09:13:10;;;;;;;11.90;2.87;;;;;;;7.01;83.78;95266.91;4964343;28;20713;-81
2023/12/10 09:15:35;;;;;;;15.03;3.93;;;;;;;7.17;83.10;95266.38;4957871;28;20657;-82
2023/12/10 09:18:01;;;;;;;11.80;3.40;;;;;;;7.27;82.68;95266.41;4972290;28;20204;-82
2023/12/10 09:20:26;;;;;;;15.47;2.90;;;;;;;6.95;83.22;95267.41;4974933;28;20191;-82
2023/12/10 09:22:52;;;;;;;9.90;2.33;;;;;;;7.15;82.50;95262.28;4990583;28;20255;-81
2023/12/10 09:25:17;;;;;;;12.37;2.93;;;;;;;6.81;82.84;95260.06;4973976;28;20676;-80
2023/12/10 09:27:43;;;;;;;15.13;3.10;;;;;;;7.01;82.90;95268.66;4961570;28;20222;-82
2023/12/10 09:30:08;;;;;;;14.47;3.33;;;;;;;7.27;81.69;95281.91;4959286;28;20184;-81
2023/12/10 09:32:34;;;;;;;15.33;3.93;;;;;;;7.32;81.44;95287.47;4991199;28;20186;-79
2023/12/10 09:35:00;;;;;;;15.43;4.53;;;;;;;7.08;82.65;95287.84;4990054;28;20672;-84
2023/12/10 09:37:26;;;;;;;12.27;3.10;;;;;;;7.30;81.82;95294.53;4963736;28;20287;-81
2023/12/10 09:39:51;;;;;;;9.30;2.60;;;;;;;7.14;81.75;95289.06;4987796;28;20220;-81
2023/12/10 09:42:16;;;;;;;11.23;2.93;;;;;;;7.31;81.27;95291.00;4987080;28;20180;-82
2023/12/10 09:44:42;;;;;;;12.57;2.53;;;;;;;7.20;82.19;95299.69;4969926;28;20212;-80
2023/12/10 09:47:09;;;;;;;11.57;3.43;;;;;;;7.33;82.18;95302.00;4985159;28;20808;-81
2023/12/10 09:49:37;;;;;;;14.53;3.13;;;;;;;7.19;81.92;95297.25;4988164;28;20202;-81
2023/12/10 09:52:07;;;;;;;14.30;3.23;;;;;;;7.03;82.63;95288.22;4987259;28;20564;-81
2023/12/10 09:54:33;;;;;;;9.97;3.10;;;;;;;7.18;82.40;95278.34;4963430;28;20212;-81
2023/12/10 09:56:58;;;;;;;13.30;3.83;;;;;;;7.19;82.04;95289.50;4986228;28;20219;-81
2023/12/10 09:59:23;;;;;;;14.57;3.40;;;;;;;7.19;82.17;95279.97;4972231;28;20316;-80
2023/12/10 10:01:56;;;;;;;11.23;3.53;;;;;;;7.42;81.79;95285.72;4988657;28;20192;-80
2023/12/10 10:04:21;;;;;;;13.63;2.90;;;;;;;7.30;81.67;95263.53;4972850;28;20204;-81
2023/12/10 10:06:46;;;;;;;13.03;2.80;;;;;;;7.32;81.12;95272.78;4972778;28;20775;-81
2023/12/10 10:09:12;;;;;;;8.57;3.37;;;;;;;7.52;80.53;95271.03;4975704;28;20243;-81
2023/12/10 10:11:40;;;;;;;13.67;2.70;;;;;;;7.35;79.73;95271.72;4973037;28;20637;-79
2023/12/10 10:14:05;;;;;;;15.77;3.00;;;;;;;7.51;80.33;95259.09;4978063;28;20303;-79
2023/12/10 10:16:31;;;;;;;15.23;3.43;;;;;;;7.53;80.37;95253.78;4978483;28;20195;-79
2023/12/10 10:18:58;;;;;;;12.50;3.60;;;;;;;7.72;79.85;95260.69;4976229;28;20203;-79
2023/12/10 10:21:28;;;;;;;15.87;2.83;;;;;;;7.68;79.30;95254.97;4978316;28;20218;-82
2023/12/10 10:23:53;;;;;;;11.87;2.47;;;;;;;7.60;79.92;95262.63;4994415;28;20580;-79
2023/12/10 10:26:19;;;;;;;15.97;2.60;;;;;;;7.75;79.30;95253.47;4979484;28;20194;-79
2023/12/10 10:28:47;;;;;;;20.67;2.67;;;;;;;7.83;79.14;95257.97;4977385;28;20546;-79
2023/12/10 10:31:13;;;;;;;13.73;2.80;;;;;;;8.16;78.08;95248.94;4978935;28;20195;-80
2023/12/10 10:33:40;;;;;;;12.67;2.97;;;;;;;7.85;78.77;95256.88;4961622;28;20184;-80
2023/12/10 10:36:05;;;;;;;13.30;2.70;;;;;;;8.09;78.51;95251.25;4998185;28;20195;-80
2023/12/10 10:38:31;;;;;;;14.37;2.57;;;;;;;8.02;77.46;95252.75;4966833;28;20216;-80
2023/12/10 10:40:58;;;;;;;12.47;2.57;;;;;;;7.92;77.57;95257.94;4976955;28;20180;-81
2023/12/10 10:43:24;;;;;;;13.77;2.90;;;;;;;8.20;76.80;95251.09;4977393;28;20180;-80
2023/12/10 10:45:49;;;;;;;14.93;3.40;;;;;;;7.92;76.85;95254.56;4982726;28;20207;-78
2023/12/10 10:48:15;;;;;;;14.60;2.30;;;;;;;7.82;77.35;95246.00;4960290;28;20307;-79
2023/12/10 10:50:41;;;;;;;17.10;2.70;;;;;;;8.08;76.99;95243.63;4977123;28;20188;-79
2023/12/10 10:53:07;;;;;;;10.23;3.13;;;;;;;8.19;76.59;95233.13;4991686;28;20192;-80
2023/12/10 10:55:33;;;;;;;14.83;3.30;;;;;;;8.14;76.52;95230.97;4960959;28;20207;-79
2023/12/10 10:57:58;;;;;;;14.43;3.10;;;;;;;8.29;75.73;95238.25;4991240;28;20208;-79
2023/12/10 11:00:23;;;;;;;12.83;3.03;;;;;;;8.37;75.64;95233.22;4992128;28;20183;-79
2023/12/10 11:02:53;;;;;;;16.13;2.40;;;;;;;8.20;75.66;95227.00;4992390;28;20184;-79
2023/12/10 11:05:32;;;;;;;14.33;2.60;;;;;;;8.06;76.02;95228.28;4994242;28;20195;-81
2023/12/10 11:07:57;;;;;;;12.97;3.37;;;;;;;8.29;75.58;95238.25;4992921;28;20184;-78
2023/12/10 11:10:23;;;;;;;14.53;3.00;;;;;;;8.01;76.36;95238.19;4992865;28;20194;-80
2023/12/10 11:12:51;;;;;;;9.40;3.57;;;;;;;8.15;76.08;95237.78;4992977;28;20274;-80
2023/12/10 11:15:16;;;;;;;16.63;3.57;;;;;;;8.30;75.32;95234.72;4976529;28;20220;-80
2023/12/10 11:17:54;;;;;;;13.97;3.53;;;;;;;8.48;75.30;95236.47;4992023;28;20267;-80
2023/12/10 11:20:31;;;;;;;12.57;3.77;;;;;;;8.42;75.12;95233.63;4993804;28;20330;-80
2023/12/10 11:22:57;;;;;;;9.30;3.40;;;;;;;8.34;75.43;95230.91;4991108;28;20270;-80
2023/12/10 11:25:22;;;;;;;13.10;4.13;;;;;;;8.60;74.67;95228.53;4990584;28;20713;-81
2023/12/10 11:27:48;;;;;;;21.60;3.83;;;;;;;8.67;74.10;95217.47;4976110;28;20203;-81